Portada
METAR-TAF:

METAR-TAF

Aeropuertos :

Cazaux, Francia

latitud: 44-32N, longitud: 001-08W, altitud: 25 m

Observación

El informe se hizo hace 26 minutos, a las 18:00 UTC
Viento 2 kt del oeste-noroeste
Temperatura 22°C
Humedad 65%
Presión 1017 hPa
Visibilidad 10 km o más
sin nubes por debajo de 1500 m y sin presencia de cumulonimbus.

METAR: LFBC 231800Z AUTO 30002KT CAVOK 22/15 Q1017

Hora: 20:26 (18:26 UTC)

Pronóstico

El informe se hizo hace 28 horas y 26 minutos, a las 14:00 UTC
Pronóstico válido del 22 a las 15 UTC al 23 a las 15 UTC
Viento 6 kt del norte-noroeste
Visibilidad 10 km o más
sin nubes por debajo de 1500 m y sin presencia de cumulonimbus.
Temporalmente
del 23 a las 03 UTC al 23 a las 07 UTC
Visibilidad: 0500 m
niebla en bancos

TAF: LFBC 221400Z 2215/2315 33006KT CAVOK TEMPO 2303/2307 0500 BCFG

Observaciones y pronósticos meteorológicos de más de 4000 aeropuertos (mensajes METAR y TAF).

Los puntos amarillos y rojos representan las estaciones disponibles.

Ponga el ratón en el punto deseado para ver el nombre de la estación.

Haga clic para ver las observaciones y los pronósticos meteorológicos.

Para cambiar el mapa : haga clic en los botones verdes con una cruz de color negro para hacer un zoom, en el botón verde con un guión para alejar o en las flechas verdes para mapas adyacentes.


METAR-TAF: